Bookmark and Share
Track history (hours):
 

Pintail

More information available from US FCC via Universal Licensing System and Coast Guard Vessel Documentation Center.

Last reported at 2014-Apr-17 23:33 UTC. Time now 2014-Apr-18 00:22 UTC.
Position N 48°32' W 122°60'.

Length 19 m.

Type: Towing. MMSI: 367460260.

NotesDate/timePositionNaut miles runAvg speedWind from/ knotsBaromVisibWave heightAir tempDewpointWater temp
2014-Apr-17 23:33N 48°32' W 122°60'0 0.0
2014-Apr-17 22:33N 48°32' W 122°60'0 0.0
2014-Apr-17 21:33N 48°32' W 122°60'0 0.0
2014-Apr-17 20:29N 48°32' W 122°60'4 3.9
2014-Apr-17 19:33N 48°33' W 122°55'5 5.0
2014-Apr-17 18:33N 48°32' W 122°48'7 7.0
2014-Apr-17 17:33N 48°31' W 122°37'3 2.6
2014-Apr-17 16:32N 48°32' W 122°41'6 6.0
2014-Apr-17 15:33N 48°31' W 122°50'2 2.3
2014-Apr-17 14:33N 48°33' W 122°51'3 3.4
2014-Apr-17 13:33N 48°33' W 122°56'3 2.6
2014-Apr-17 12:31N 48°32' W 122°60'0 0.0
2014-Apr-17 11:31N 48°32' W 122°60'0 0.0
2014-Apr-17 10:28N 48°32' W 122°60'0 0.0
2014-Apr-17 09:31N 48°32' W 122°60'0 0.0
2014-Apr-17 08:31N 48°32' W 122°60'0 0.0
2014-Apr-17 07:31N 48°32' W 122°60'0 0.0
2014-Apr-17 06:31N 48°32' W 122°60'0 0.0
2014-Apr-17 05:31N 48°32' W 122°60'0 0.0
2014-Apr-17 04:31N 48°32' W 122°60'0 0.0
2014-Apr-17 03:33N 48°32' W 122°60'0 0.0
2014-Apr-17 02:33N 48°32' W 122°60'1 0.6
2014-Apr-17 01:33N 48°32' W 122°59'3 2.7
2014-Apr-17 00:33N 48°33' W 122°56'3 3.0
2014-Apr-16 23:33N 48°32' W 122°60'0 0.5
2014-Apr-16 22:33N 48°32' W 122°60'0 0.0
2014-Apr-16 21:34N 48°32' W 122°60'0 0.0
2014-Apr-16 20:24N 48°32' W 122°60'0 0.0
2014-Apr-16 19:34N 48°32' W 122°60'0 0.0
2014-Apr-16 18:28N 48°32' W 122°60'0 0.0
2014-Apr-16 17:28N 48°32' W 122°60'0 0.0
2014-Apr-16 16:28N 48°32' W 122°60'0 0.0
2014-Apr-16 15:34N 48°32' W 122°60'0 0.0
2014-Apr-16 14:31N 48°32' W 122°60'0 0.0
2014-Apr-16 13:28N 48°32' W 122°60'0 0.0
2014-Apr-16 12:31N 48°32' W 122°60'0 0.0
2014-Apr-16 11:28N 48°32' W 122°60'0 0.0
2014-Apr-16 10:31N 48°32' W 122°60'0 0.0
2014-Apr-16 09:31N 48°32' W 122°60'0 0.0
2014-Apr-16 08:31N 48°32' W 122°60'0 0.0
2014-Apr-16 07:31N 48°32' W 122°60'0 0.0
2014-Apr-16 06:28N 48°32' W 122°60'0 0.0
2014-Apr-16 05:31N 48°32' W 122°60'0 0.0
2014-Apr-16 04:31N 48°32' W 122°60'0 0.0
2014-Apr-16 03:31N 48°32' W 122°60'0 0.0
2014-Apr-16 02:31N 48°32' W 122°60'0 0.0
2014-Apr-16 01:28N 48°32' W 122°60'0 0.0
2014-Apr-16 00:28N 48°32' W 122°60'0 0.0
2014-Apr-15 23:28N 48°32' W 122°60'0 0.0
2014-Apr-15 22:31N 48°32' W 122°60'0 0.0
2014-Apr-15 21:31N 48°32' W 122°60'0 0.0
2014-Apr-15 20:31N 48°32' W 122°60'0 0.0
2014-Apr-15 19:28N 48°32' W 122°60'0 0.0
2014-Apr-15 18:31N 48°32' W 122°60'0 0.0
2014-Apr-15 17:28N 48°32' W 122°60'0 0.0
2014-Apr-15 16:31N 48°32' W 122°60'0 0.0
2014-Apr-15 15:31N 48°32' W 122°60'0 0.0
2014-Apr-15 14:31N 48°32' W 122°60'0 0.0
2014-Apr-15 11:31N 48°32' W 122°60'0 0.0
2014-Apr-15 10:31N 48°32' W 122°60'0 0.0
2014-Apr-15 09:31N 48°32' W 122°60'0 0.0
2014-Apr-15 08:31N 48°32' W 122°60'0 0.0
2014-Apr-15 07:31N 48°32' W 122°60'0 0.0
2014-Apr-15 06:31N 48°32' W 122°60'0 0.0
2014-Apr-15 03:31N 48°32' W 122°60'0 0.0
2014-Apr-15 02:31N 48°32' W 122°60'0 0.0
2014-Apr-15 01:31N 48°32' W 122°60'0 0.0
2014-Apr-15 00:31N 48°32' W 122°60'0 0.0
2014-Apr-14 23:31N 48°32' W 122°60'0 0.0
2014-Apr-14 22:31N 48°32' W 122°60'0 0.0
2014-Apr-14 21:31N 48°32' W 122°60'0 0.0
2014-Apr-14 20:31N 48°32' W 122°60'0 0.0
2014-Apr-14 19:31N 48°32' W 122°60'3 2.6
2014-Apr-14 18:34N 48°33' W 122°56'5 4.7
2014-Apr-14 17:34N 48°32' W 122°49'7 6.5
2014-Apr-14 16:32N 48°32' W 122°39'0 0.2
2014-Apr-14 15:33N 48°32' W 122°39'7 6.6
2014-Apr-14 14:33N 48°32' W 122°49'6 5.8
2014-Apr-14 13:33N 48°33' W 122°58'2 0.9
2014-Apr-14 11:31N 48°32' W 122°60'0 0.0
2014-Apr-14 10:31N 48°32' W 122°60'0 0.0
2014-Apr-14 09:31N 48°32' W 122°60'0 0.0
2014-Apr-14 08:31N 48°32' W 122°60'0 0.0
2014-Apr-14 07:31N 48°32' W 122°60'0 0.0
2014-Apr-14 06:31N 48°32' W 122°60'0 0.0
2014-Apr-14 05:31N 48°32' W 122°60'0 0.0
2014-Apr-13 22:31N 48°32' W 122°60'0 0.0
2014-Apr-13 21:31N 48°32' W 122°60'0 0.0
2014-Apr-13 20:31N 48°32' W 122°60'0 0.0
2014-Apr-13 19:22N 48°32' W 122°60'0 0.0
2014-Apr-13 18:31N 48°32' W 122°60'0 0.0
2014-Apr-13 17:31N 48°32' W 122°60'0 0.0
2014-Apr-13 16:31N 48°32' W 122°60'0 0.0
2014-Apr-13 15:31N 48°32' W 122°60'0 0.0
2014-Apr-13 14:31N 48°32' W 122°60'0 0.0
2014-Apr-13 13:31N 48°32' W 122°60'0 0.0
2014-Apr-13 12:29N 48°32' W 122°60'0 0.0
2014-Apr-13 11:32N 48°32' W 122°60'0 0.0
2014-Apr-13 10:32N 48°32' W 122°60'0 0.0
2014-Apr-13 09:29N 48°32' W 122°60'0 0.0
2014-Apr-13 08:32N 48°32' W 122°60'0 0.0
2014-Apr-13 07:29N 48°32' W 122°60'0 0.0
2014-Apr-13 06:32N 48°32' W 122°60'0 0.0
2014-Apr-13 05:32N 48°32' W 122°60'0 0.0
2014-Apr-13 04:32N 48°32' W 122°60'0 0.0
2014-Apr-13 03:32N 48°32' W 122°60'0 0.0
2014-Apr-13 02:32N 48°32' W 122°60'0 0.0
2014-Apr-13 01:32N 48°32' W 122°60'0 0.0
2014-Apr-13 00:32N 48°32' W 122°60'0 0.0
2014-Apr-12 23:31N 48°32' W 122°60'0 0.0
2014-Apr-12 22:28N 48°32' W 122°60'0 0.0
2014-Apr-12 21:31N 48°32' W 122°60'0 0.0
2014-Apr-12 20:31N 48°32' W 122°60'0 0.0
2014-Apr-12 19:31N 48°32' W 122°60'0 0.0
2014-Apr-12 18:31N 48°32' W 122°60'0 0.0
2014-Apr-12 17:31N 48°32' W 122°60'0 0.0
2014-Apr-12 16:32N 48°32' W 122°60'0 0.0
2014-Apr-12 15:28N 48°32' W 122°60'0 0.0
2014-Apr-12 14:31N 48°32' W 122°60'0 0.0
2014-Apr-12 13:31N 48°32' W 122°60'0 0.0
2014-Apr-12 12:31N 48°32' W 122°60'0 0.0
2014-Apr-12 11:28N 48°32' W 122°60'0 0.0
2014-Apr-12 10:28N 48°32' W 122°60'0 0.0
2014-Apr-12 09:31N 48°32' W 122°60'0 0.0
2014-Apr-12 08:31N 48°32' W 122°60'0 0.0
2014-Apr-12 07:19N 48°32' W 122°60'0 0.0
2014-Apr-12 06:31N 48°32' W 122°60'0 0.0
2014-Apr-12 05:31N 48°32' W 122°60'0 0.0
2014-Apr-12 04:31N 48°32' W 122°60'0 0.0
2014-Apr-12 03:31N 48°32' W 122°60'0 0.0
2014-Apr-12 02:33N 48°32' W 122°60'0 0.1
2014-Apr-12 01:31N 48°32' W 123°00'8 3.4
2014-Apr-11 23:04N 48°37' W 123°10'0 0.8
2014-Apr-11 22:27N 48°36' W 123°09'0 0.0
2014-Apr-11 20:13N 48°36' W 123°09'0 0.0
2014-Apr-11 19:31N 48°36' W 123°09'7 2.5
2014-Apr-11 16:33N 48°33' W 122°60'1 0.9
2014-Apr-11 15:31N 48°32' W 122°60'0 0.0
2014-Apr-11 14:31N 48°32' W 122°60'0 0.0
2014-Apr-11 13:31N 48°32' W 122°60'0 0.0
2014-Apr-11 12:19N 48°32' W 122°60'0 0.0
2014-Apr-11 11:31N 48°32' W 122°60'0 0.0
2014-Apr-11 10:28N 48°32' W 122°60'0 0.0
2014-Apr-11 09:31N 48°32' W 122°60'0 0.0
2014-Apr-11 08:31N 48°32' W 122°60'0 0.0
2014-Apr-11 07:31N 48°32' W 122°60'0 0.0
2014-Apr-11 06:31N 48°32' W 122°60'0 0.0
2014-Apr-11 05:31N 48°32' W 122°60'0 0.0
2014-Apr-11 04:31N 48°32' W 122°60'0 0.0
2014-Apr-11 03:31N 48°32' W 122°60'0 0.0
2014-Apr-11 02:31N 48°32' W 122°60'0 0.0
2014-Apr-11 01:31N 48°32' W 122°60'0 0.0
2014-Apr-11 00:31N 48°32' W 122°60'0 0.0
2014-Apr-10 23:28N 48°32' W 122°60'0 0.0
2014-Apr-10 22:28N 48°32' W 122°60'0 0.0
2014-Apr-10 21:31N 48°32' W 122°60'0 0.3
2014-Apr-10 20:33N 48°32' W 123°00'4 3.6
2014-Apr-10 19:33N 48°33' W 122°55'6 5.6
2014-Apr-10 18:33N 48°31' W 122°47'6 6.1
2014-Apr-10 17:33N 48°31' W 122°38'3 2.5
2014-Apr-10 16:30N 48°32' W 122°42'5 5.4
2014-Apr-10 15:33N 48°33' W 122°49'6 5.8
2014-Apr-10 14:33N 48°33' W 122°58'2 1.3
2014-Apr-10 13:20N 48°32' W 122°60'0 0.0
2014-Apr-10 12:31N 48°32' W 122°60'0 0.0
2014-Apr-10 11:31N 48°32' W 122°60'0 0.0
2014-Apr-10 10:31N 48°32' W 122°60'0 0.0
2014-Apr-10 09:31N 48°32' W 122°60'0 0.0
2014-Apr-10 08:31N 48°32' W 122°60'0 0.0
2014-Apr-10 07:31N 48°32' W 122°60'0 0.0
2014-Apr-10 06:31N 48°32' W 122°60'0 0.0
2014-Apr-10 05:31N 48°32' W 122°60'0 0.0
2014-Apr-10 04:31N 48°32' W 122°60'0 0.0
2014-Apr-10 03:31N 48°32' W 122°60'0 0.0
2014-Apr-10 02:31N 48°32' W 122°60'0 0.0
2014-Apr-10 01:31N 48°32' W 122°60'0 0.0
2014-Apr-10 00:31N 48°32' W 122°60'0 0.0
2014-Apr-09 23:31N 48°32' W 122°60'0 0.0
2014-Apr-09 22:33N 48°32' W 122°60'0 0.1
2014-Apr-09 21:33N 48°32' W 122°60'1 1.0
2014-Apr-09 20:31N 48°32' W 123°01'0 0.0
2014-Apr-09 19:31N 48°32' W 123°01'0 0.0
2014-Apr-09 18:31N 48°32' W 123°01'0 0.0
2014-Apr-09 17:31N 48°32' W 123°01'0 0.0
2014-Apr-09 16:31N 48°32' W 123°01'1 1.0
2014-Apr-09 15:31N 48°32' W 123°00'0 0.1
2014-Apr-09 14:31N 48°32' W 122°60'0 0.0
2014-Apr-09 13:25N 48°32' W 122°60'0 0.0
2014-Apr-09 12:31N 48°32' W 122°60'0 0.0
2014-Apr-09 11:31N 48°32' W 122°60'0 0.0
2014-Apr-09 10:31N 48°32' W 122°60'0 0.0
2014-Apr-09 09:28N 48°32' W 122°60'0 0.0
2014-Apr-09 08:31N 48°32' W 122°60'0 0.0
2014-Apr-09 07:31N 48°32' W 122°60'0 0.0
2014-Apr-09 06:32N 48°32' W 122°60'0 0.0
2014-Apr-09 05:32N 48°32' W 122°60'0 0.0
2014-Apr-09 04:29N 48°32' W 122°60'0 0.0
2014-Apr-09 03:31N 48°32' W 122°60'0 0.0
2014-Apr-09 02:31N 48°32' W 122°60'0 0.0
2014-Apr-09 01:31N 48°32' W 122°60'0 0.0
2014-Apr-09 00:31N 48°32' W 122°60'0 0.0
2014-Apr-08 23:31N 48°32' W 122°60'0 0.0
2014-Apr-08 22:31N 48°32' W 122°60'0 0.0
2014-Apr-08 21:31N 48°32' W 122°60'0 0.1
2014-Apr-08 20:30N 48°32' W 123°00'4 3.4
2014-Apr-08 19:27N 48°35' W 123°03'5 3.7
2014-Apr-08 18:14N 48°36' W 123°09'0 0.0
2014-Apr-08 16:09N 48°36' W 123°09'5 4.4
2014-Apr-08 15:06N 48°35' W 123°03'4 6.5
2014-Apr-08 14:33N 48°32' W 122°60'0 0.0
2014-Apr-08 13:31N 48°32' W 122°60'0 0.0
2014-Apr-08 12:31N 48°32' W 122°60'0 0.0
2014-Apr-08 11:31N 48°32' W 122°60'0 0.0
2014-Apr-08 10:31N 48°32' W 122°60'0 0.0
2014-Apr-08 09:31N 48°32' W 122°60'0 0.0
2014-Apr-08 08:31N 48°32' W 122°60'0 0.0
2014-Apr-08 07:31N 48°32' W 122°60'0 0.0
2014-Apr-08 06:31N 48°32' W 122°60'0 0.0
2014-Apr-08 05:28N 48°32' W 122°60'0 0.0
2014-Apr-08 04:31N 48°32' W 122°60'0 0.0
2014-Apr-08 03:32N 48°32' W 122°60'0 0.0
2014-Apr-08 02:28N 48°32' W 122°60'0 0.0
2014-Apr-08 01:28N 48°32' W 122°60'0 0.0
2014-Apr-08 00:31N 48°32' W 122°60'  

Dump ship's entire track history

sailing weather and tide predictions

Pintail — WDF5177 — position and weather